Time;durP1;ratioP1;P1;durP2;ratioP2;P2;SDS_P1;SDS_P2;PMS_P1;PMS_P2;Temp;Humidity;BMP_temperature;BMP_pressure;BME280_temperature;BME280_humidity;BME280_pressure;Samples;Min_cycle;Max_cycle;Signal;HPM_P1;HPM_P2
2022/05/14 00:00:58;;;;;;;6.38;4.60;;;13.90;66.60;;;;;;5106408;22;21353;-71
2022/05/14 00:03:26;;;;;;;7.57;4.97;;;13.90;66.50;;;;;;5119758;27;20476;-69
2022/05/14 00:05:53;;;;;;;8.80;5.40;;;13.90;66.40;;;;;;5123962;27;20450;-69
2022/05/14 00:08:21;;;;;;;9.47;5.23;;;13.90;66.40;;;;;;5122463;27;20432;-69
2022/05/14 00:13:34;;;;;;;7.72;4.68;;;13.80;66.50;;;;;;5101305;28;20651;-69
2022/05/14 00:16:00;;;;;;;9.07;4.10;;;13.80;67.40;;;;;;5102003;28;20454;-69
2022/05/14 00:18:27;;;;;;;8.00;4.20;;;13.80;66.70;;;;;;5101476;28;20485;-68
2022/05/14 00:20:54;;;;;;;6.28;4.32;;;13.80;66.40;;;;;;5101848;28;20496;-67
2022/05/14 00:23:21;;;;;;;7.35;4.45;;;13.80;66.40;;;;;;5102350;28;20463;-69
2022/05/14 00:25:48;;;;;;;9.57;4.30;;;13.70;66.50;;;;;;5101550;28;20443;-69
2022/05/14 00:28:15;;;;;;;7.32;4.65;;;13.70;66.70;;;;;;5102416;28;20568;-70
2022/05/14 00:30:43;;;;;;;5.07;4.05;;;13.70;66.90;;;;;;5102929;28;20431;-67
2022/05/14 00:33:10;;;;;;;5.55;4.20;;;13.70;67.40;;;;;;5103106;28;20436;-70
2022/05/14 00:35:37;;;;;;;8.07;4.50;;;13.60;67.30;;;;;;5103431;28;20916;-68
2022/05/14 00:38:05;;;;;;;6.28;3.70;;;13.60;66.80;;;;;;5102236;28;20530;-67
2022/05/14 00:40:34;;;;;;;8.63;4.50;;;13.60;66.80;;;;;;5101683;28;20424;-69
2022/05/14 00:43:01;;;;;;;7.40;3.60;;;13.60;66.80;;;;;;5099723;28;20501;-68
2022/05/14 00:45:31;;;;;;;5.95;3.70;;;13.50;66.90;;;;;;5102288;28;21539;-68
2022/05/14 00:48:00;;;;;;;8.57;4.88;;;13.50;66.90;;;;;;5096201;28;20600;-68
2022/05/14 00:50:36;;;;;;;7.45;4.85;;;13.50;67.70;;;;;;5101653;28;20435;-69
2022/05/14 00:53:07;;;;;;;7.43;4.60;;;13.50;67.10;;;;;;5093933;28;20542;-70
2022/05/14 00:55:34;;;;;;;8.50;5.35;;;13.40;67.20;;;;;;5103512;28;20512;-67
2022/05/14 00:58:02;;;;;;;6.32;5.07;;;13.40;67.30;;;;;;5102723;28;20440;-68
2022/05/14 01:00:30;;;;;;;8.25;5.10;;;13.40;68.00;;;;;;5100461;27;20793;-71
2022/05/14 01:02:56;;;;;;;7.03;4.47;;;13.40;68.50;;;;;;5102139;28;20559;-68
2022/05/14 01:05:25;;;;;;;6.57;4.15;;;13.40;68.90;;;;;;5103503;28;20454;-68
2022/05/14 01:07:55;;;;;;;3.97;3.40;;;13.40;68.50;;;;;;5098438;28;20492;-70
2022/05/14 01:10:26;;;;;;;7.68;3.97;;;13.40;68.60;;;;;;5102667;28;20416;-68
2022/05/14 01:13:03;;;;;;;7.15;3.97;;;13.30;69.30;;;;;;5095281;28;20436;-68
2022/05/14 01:15:41;;;;;;;4.93;3.40;;;13.30;69.20;;;;;;5100039;28;20420;-68
2022/05/14 01:18:09;;;;;;;6.00;3.70;;;13.30;69.30;;;;;;5102981;28;20473;-70
2022/05/14 01:20:38;;;;;;;6.20;3.38;;;13.30;69.10;;;;;;5101505;28;21127;-68
2022/05/14 01:23:13;;;;;;;6.03;3.92;;;13.20;69.70;;;;;;5101167;28;20493;-70
2022/05/14 01:28:36;;;;;;;9.73;3.80;;;13.20;70.20;;;;;;5099741;28;20411;-71
2022/05/14 01:31:03;;;;;;;6.32;4.18;;;13.10;70.00;;;;;;5102862;28;20423;-68
2022/05/14 01:33:31;;;;;;;8.88;4.10;;;13.10;69.00;;;;;;5098888;28;20845;-68
2022/05/14 01:35:58;;;;;;;8.30;3.73;;;13.10;69.50;;;;;;5101289;28;20424;-68
2022/05/14 01:38:25;;;;;;;7.68;4.40;;;13.10;68.90;;;;;;5100528;28;20551;-68
2022/05/14 01:40:51;;;;;;;4.70;3.40;;;13.00;69.40;;;;;;5100317;28;20443;-68
2022/05/14 01:43:19;;;;;;;6.35;3.80;;;13.00;69.90;;;;;;5101279;28;20428;-73
2022/05/14 01:45:47;;;;;;;5.70;4.00;;;13.00;70.90;;;;;;5101472;28;20416;-69
2022/05/14 01:48:14;;;;;;;5.20;3.50;;;13.00;69.30;;;;;;5099918;28;20541;-69
2022/05/14 01:50:41;;;;;;;6.32;4.25;;;13.00;69.60;;;;;;5100752;28;20431;-68
2022/05/14 01:53:08;;;;;;;6.07;3.65;;;13.00;69.00;;;;;;5102195;28;20524;-68
2022/05/14 01:55:35;;;;;;;5.70;3.40;;;12.90;69.30;;;;;;5100910;28;20533;-68
2022/05/14 01:58:36;;;;;;;7.20;3.53;;;12.90;70.00;;;;;;5101517;28;20428;-68
2022/05/14 02:00:50;;;;;;;5.63;3.40;;;12.90;68.50;;;;;;5099901;28;20485;-67
2022/05/14 02:03:16;;;;;;;6.10;3.60;;;12.90;69.50;;;;;;5096739;28;20828;-68
2022/05/14 02:05:43;;;;;;;4.25;3.22;;;12.80;68.60;;;;;;5100583;28;20492;-70
2022/05/14 02:08:10;;;;;;;5.70;3.10;;;12.80;69.30;;;;;;5102307;28;20412;-68
2022/05/14 02:10:37;;;;;;;5.88;3.22;;;12.70;69.70;;;;;;5100740;28;20516;-68
2022/05/14 02:13:04;;;;;;;7.15;3.75;;;12.70;68.90;;;;;;5103142;28;20445;-68
2022/05/14 02:15:30;;;;;;;7.80;3.40;;;12.70;69.00;;;;;;5101088;28;20584;-66
2022/05/14 02:17:58;;;;;;;5.38;3.58;;;12.60;69.10;;;;;;5102084;28;20439;-66
2022/05/14 02:20:25;;;;;;;6.25;3.30;;;12.60;69.10;;;;;;5100921;28;20527;-67
2022/05/14 02:22:52;;;;;;;5.47;3.47;;;12.70;69.00;;;;;;5103301;28;20411;-71
2022/05/14 02:25:20;;;;;;;5.22;3.30;;;12.60;69.40;;;;;;5101859;28;20515;-68
2022/05/14 02:27:47;;;;;;;5.20;3.17;;;12.60;69.20;;;;;;5096798;28;20428;-68
2022/05/14 02:30:14;;;;;;;6.82;3.38;;;12.60;69.80;;;;;;5099142;28;20496;-69
2022/05/14 02:32:41;;;;;;;6.00;3.80;;;12.60;69.80;;;;;;5098153;28;20899;-68
2022/05/14 02:35:09;;;;;;;3.83;3.22;;;12.50;69.30;;;;;;5100269;28;20428;-68
2022/05/14 02:37:36;;;;;;;6.75;3.45;;;12.50;69.90;;;;;;5101385;28;20504;-68
2022/05/14 02:40:03;;;;;;;5.97;3.40;;;12.50;69.80;;;;;;5102427;28;20520;-68
2022/05/14 02:42:30;;;;;;;6.00;3.60;;;12.50;69.20;;;;;;5098327;28;20489;-68
2022/05/14 02:44:56;;;;;;;5.95;3.30;;;12.40;69.60;;;;;;5105862;28;20552;-68
2022/05/14 02:47:23;;;;;;;8.70;3.92;;;12.40;69.70;;;;;;5100594;28;20432;-68
2022/05/14 02:49:50;;;;;;;5.32;3.47;;;12.40;69.80;;;;;;5103717;27;20518;-67
2022/05/14 02:52:18;;;;;;;4.93;3.30;;;12.30;70.00;;;;;;5106207;28;20478;-68
2022/05/14 02:54:45;;;;;;;6.85;3.60;;;12.30;69.90;;;;;;5105395;28;20435;-68
2022/05/14 02:57:12;;;;;;;5.20;3.30;;;12.30;70.30;;;;;;5105630;28;20879;-69
2022/05/14 02:59:38;;;;;;;6.43;3.80;;;12.30;70.20;;;;;;5099611;28;20452;-68
2022/05/14 03:02:05;;;;;;;4.45;3.50;;;12.30;71.00;;;;;;5101734;28;20935;-68
2022/05/14 03:04:36;;;;;;;6.28;3.40;;;12.30;70.40;;;;;;5104910;28;20428;-68
2022/05/14 03:07:04;;;;;;;6.47;3.83;;;12.20;69.80;;;;;;5104113;28;20430;-69
2022/05/14 03:09:32;;;;;;;6.13;3.80;;;12.20;69.60;;;;;;5104201;28;20439;-68
2022/05/14 03:11:59;;;;;;;6.00;3.40;;;12.20;69.70;;;;;;5105904;28;20412;-68
2022/05/14 03:14:26;;;;;;;5.10;3.42;;;12.20;69.60;;;;;;5101073;28;20511;-67
2022/05/14 03:16:52;;;;;;;7.63;3.80;;;12.10;69.60;;;;;;5105152;28;20424;-68
2022/05/14 03:19:19;;;;;;;4.60;3.10;;;12.10;69.80;;;;;;5099254;27;20516;-68
2022/05/14 03:21:46;;;;;;;5.32;3.28;;;12.00;70.10;;;;;;5105030;28;20436;-69
2022/05/14 03:24:13;;;;;;;5.53;3.20;;;12.00;70.00;;;;;;5105153;28;20436;-69
2022/05/14 03:26:42;;;;;;;6.57;2.90;;;12.00;69.90;;;;;;5105281;28;20433;-67
2022/05/14 03:29:10;;;;;;;6.05;3.75;;;11.90;69.70;;;;;;5102364;28;20886;-68
2022/05/14 03:31:37;;;;;;;8.65;4.22;;;11.80;70.00;;;;;;5104199;28;20432;-68
2022/05/14 03:34:05;;;;;;;5.57;3.90;;;11.80;70.00;;;;;;5104249;28;20432;-68
2022/05/14 03:36:31;;;;;;;5.80;3.85;;;11.80;70.20;;;;;;5104895;27;20503;-67
2022/05/14 03:38:58;;;;;;;6.25;3.88;;;11.80;70.40;;;;;;5106003;27;20893;-67
2022/05/14 03:41:25;;;;;;;8.00;4.20;;;11.80;70.20;;;;;;5103942;28;20443;-70
2022/05/14 03:43:53;;;;;;;5.53;3.30;;;11.70;70.90;;;;;;5103430;28;20564;-68
2022/05/14 03:46:19;;;;;;;6.07;3.80;;;11.70;70.80;;;;;;5103056;28;20428;-68
2022/05/14 03:48:46;;;;;;;5.65;3.85;;;11.70;71.10;;;;;;5102151;28;20432;-68
2022/05/14 03:51:13;;;;;;;5.22;3.70;;;11.70;71.10;;;;;;5102948;28;20544;-68
2022/05/14 03:53:40;;;;;;;7.53;3.72;;;11.70;71.60;;;;;;5103668;28;20436;-68
2022/05/14 03:56:07;;;;;;;4.55;3.50;;;11.70;71.20;;;;;;5101078;28;20430;-68
2022/05/14 03:58:34;;;;;;;5.33;2.97;;;11.70;70.70;;;;;;5102813;28;20584;-69
2022/05/14 04:01:04;;;;;;;5.20;3.40;;;11.70;70.40;;;;;;5100888;28;20436;-67
2022/05/14 04:03:32;;;;;;;5.85;3.00;;;11.60;72.60;;;;;;5102505;28;20508;-68
2022/05/14 04:05:59;;;;;;;3.53;2.90;;;11.60;70.80;;;;;;5093869;28;20432;-68
2022/05/14 04:08:26;;;;;;;5.65;3.20;;;11.60;71.40;;;;;;5104019;28;20443;-68
2022/05/14 04:10:53;;;;;;;5.20;2.90;;;11.60;71.40;;;;;;5102903;28;20451;-68
2022/05/14 04:13:21;;;;;;;5.72;3.60;;;11.60;71.70;;;;;;5104332;27;20436;-69
2022/05/14 04:15:47;;;;;;;7.60;3.63;;;11.60;72.00;;;;;;5103238;28;20428;-68
2022/05/14 04:18:20;;;;;;;6.60;3.80;;;11.60;72.50;;;;;;5101191;28;20431;-69
2022/05/14 04:20:46;;;;;;;5.15;3.25;;;11.60;72.00;;;;;;5103229;28;20839;-69
2022/05/14 04:23:13;;;;;;;4.35;3.10;;;11.60;71.30;;;;;;5102945;28;20465;-68
2022/05/14 04:25:40;;;;;;;6.10;3.55;;;11.60;71.20;;;;;;5103212;28;20924;-67
2022/05/14 04:28:06;;;;;;;5.05;3.33;;;11.50;71.90;;;;;;5102300;28;20435;-68
2022/05/14 04:30:33;;;;;;;7.03;3.58;;;11.60;72.00;;;;;;5109783;27;20494;-68
2022/05/14 04:32:59;;;;;;;4.70;3.47;;;11.50;71.70;;;;;;5101420;27;20485;-67
2022/05/14 04:35:28;;;;;;;4.60;3.00;;;11.60;71.90;;;;;;5102879;28;20500;-69
2022/05/14 04:37:56;;;;;;;6.18;3.30;;;11.60;72.30;;;;;;5099251;28;20432;-68
2022/05/14 04:40:23;;;;;;;6.38;3.55;;;11.60;72.50;;;;;;5105446;27;20767;-69
2022/05/14 04:42:50;;;;;;;4.53;3.10;;;11.60;72.90;;;;;;5102437;28;20936;-67
2022/05/14 04:45:16;;;;;;;4.47;2.90;;;11.50;72.20;;;;;;5101002;28;20523;-68
2022/05/14 04:47:43;;;;;;;5.60;3.50;;;11.50;71.00;;;;;;5099104;28;20440;-68
2022/05/14 04:50:11;;;;;;;6.25;3.47;;;11.50;70.70;;;;;;5102382;28;20425;-67
2022/05/14 04:52:39;;;;;;;4.75;3.15;;;11.40;70.60;;;;;;5102860;28;20851;-68
2022/05/14 04:55:07;;;;;;;5.60;3.83;;;11.40;70.70;;;;;;5101985;28;20443;-67
2022/05/14 04:57:34;;;;;;;3.42;2.70;;;11.40;70.90;;;;;;5096295;28;20485;-68
2022/05/14 05:00:01;;;;;;;8.68;3.60;;;11.40;70.90;;;;;;5103692;28;20485;-69
2022/05/14 05:05:13;;;;;;;5.45;3.08;;;11.40;70.70;;;;;;5100523;28;20537;-69
2022/05/14 05:07:41;;;;;;;3.53;3.22;;;11.40;70.40;;;;;;5104361;28;20459;-68
2022/05/14 05:10:09;;;;;;;4.90;3.10;;;11.40;70.60;;;;;;5101448;28;20443;-68
2022/05/14 05:12:36;;;;;;;3.88;2.70;;;11.40;71.10;;;;;;5092381;28;21049;-68
2022/05/14 05:15:03;;;;;;;3.78;2.95;;;11.50;70.50;;;;;;5103019;28;20990;-68
2022/05/14 05:17:29;;;;;;;5.05;3.45;;;11.50;70.80;;;;;;5103386;28;20432;-69
2022/05/14 05:19:56;;;;;;;5.63;3.88;;;11.60;69.80;;;;;;5102800;28;20520;-69
2022/05/14 05:22:23;;;;;;;4.30;3.20;;;11.70;69.80;;;;;;5098867;28;20904;-69
2022/05/14 05:24:51;;;;;;;5.57;2.78;;;11.70;69.40;;;;;;5103466;28;20496;-70
2022/05/14 05:27:17;;;;;;;5.93;2.73;;;11.80;68.60;;;;;;5100806;28;20424;-69
2022/05/14 05:29:44;;;;;;;7.10;3.20;;;11.80;68.40;;;;;;5100910;28;20509;-68
2022/05/14 05:32:11;;;;;;;5.78;3.00;;;11.80;67.80;;;;;;5101683;28;20792;-68
2022/05/14 05:34:37;;;;;;;6.03;2.90;;;11.80;68.10;;;;;;5102676;28;20428;-68
2022/05/14 05:37:04;;;;;;;4.82;2.70;;;11.80;67.50;;;;;;5102655;28;20509;-67
2022/05/14 05:39:31;;;;;;;4.82;2.80;;;11.90;68.50;;;;;;5102967;28;20428;-68
2022/05/14 05:41:59;;;;;;;5.22;2.90;;;12.00;67.20;;;;;;5100559;28;20439;-68
2022/05/14 05:44:25;;;;;;;4.50;3.00;;;12.00;67.10;;;;;;5100741;28;21160;-68
2022/05/14 05:46:52;;;;;;;3.00;2.50;;;12.00;66.50;;;;;;5101542;28;20428;-67
2022/05/14 05:49:19;;;;;;;5.60;2.90;;;12.10;66.00;;;;;;5101949;28;20443;-68
2022/05/14 05:51:46;;;;;;;6.00;2.85;;;12.00;65.90;;;;;;5102399;28;20431;-69
2022/05/14 05:56:59;;;;;;;6.72;2.90;;;12.20;65.90;;;;;;5097069;28;20540;-67
2022/05/14 05:59:28;;;;;;;5.70;2.70;;;12.20;65.60;;;;;;5100627;28;20452;-69
2022/05/14 06:01:55;;;;;;;5.45;3.00;;;12.20;66.40;;;;;;5100006;28;20465;-68
2022/05/14 06:04:22;;;;;;;6.10;3.50;;;12.30;65.30;;;;;;5100600;28;20882;-69
2022/05/14 06:06:49;;;;;;;6.53;3.80;;;12.30;65.30;;;;;;5098886;28;20490;-69
2022/05/14 06:09:19;;;;;;;6.40;3.50;;;12.40;65.10;;;;;;5099392;28;20408;-68
2022/05/14 06:11:46;;;;;;;7.20;4.50;;;12.40;65.20;;;;;;5095882;28;20521;-68
2022/05/14 06:14:14;;;;;;;5.85;3.25;;;12.50;65.10;;;;;;5097239;28;20903;-69
2022/05/14 06:16:41;;;;;;;5.45;3.55;;;12.60;64.40;;;;;;5100999;28;20420;-68
2022/05/14 06:19:08;;;;;;;6.68;3.45;;;12.60;64.00;;;;;;5105735;28;20436;-67
2022/05/14 06:21:37;;;;;;;6.35;3.53;;;12.60;64.10;;;;;;5102330;28;20936;-68
2022/05/14 06:24:05;;;;;;;5.60;3.37;;;12.60;64.10;;;;;;5103316;28;20497;-69
2022/05/14 06:26:31;;;;;;;3.38;3.00;;;12.70;64.10;;;;;;5113630;27;20420;-68
2022/05/14 06:28:59;;;;;;;5.90;3.80;;;12.80;63.60;;;;;;5092308;28;20433;-69
2022/05/14 06:31:27;;;;;;;5.43;3.40;;;12.80;63.60;;;;;;5101585;27;20566;-68
2022/05/14 06:33:53;;;;;;;7.03;3.55;;;12.90;63.80;;;;;;5102896;28;20449;-68
2022/05/14 06:36:20;;;;;;;5.72;3.40;;;13.00;63.50;;;;;;5103710;28;20515;-68
2022/05/14 06:38:47;;;;;;;5.13;3.30;;;13.00;63.20;;;;;;5102714;27;20443;-68
2022/05/14 06:41:15;;;;;;;6.60;3.83;;;13.10;63.40;;;;;;5105231;28;20818;-68
2022/05/14 06:43:42;;;;;;;5.93;3.30;;;13.30;63.30;;;;;;5102845;27;20545;-68
2022/05/14 06:46:09;;;;;;;6.13;3.00;;;13.50;62.40;;;;;;5096388;28;20978;-68
2022/05/14 06:48:37;;;;;;;5.47;3.40;;;13.70;60.80;;;;;;5103409;27;20523;-65
2022/05/14 06:51:07;;;;;;;4.90;3.00;;;13.80;60.50;;;;;;5104464;28;20484;-65
2022/05/14 06:53:37;;;;;;;7.45;3.97;;;13.80;60.30;;;;;;5105503;28;20562;-65
2022/05/14 06:56:05;;;;;;;8.45;3.95;;;13.70;60.30;;;;;;5098251;28;20934;-66
2022/05/14 06:58:40;;;;;;;5.32;2.97;;;13.90;60.70;;;;;;5100783;28;20424;-64
2022/05/14 07:01:08;;;;;;;5.13;3.42;;;14.00;60.10;;;;;;5099758;27;20485;-67
2022/05/14 07:06:38;;;;;;;4.90;2.95;;;14.10;60.80;;;;;;5100877;27;20517;-67
2022/05/14 07:09:06;;;;;;;6.38;3.20;;;14.40;59.50;;;;;;5100319;27;20431;-69
2022/05/14 07:11:34;;;;;;;4.50;2.80;;;14.50;59.00;;;;;;5100231;27;20550;-66
2022/05/14 07:14:01;;;;;;;5.22;3.03;;;14.70;59.90;;;;;;5103328;28;20758;-69
2022/05/14 07:16:28;;;;;;;6.47;3.42;;;14.80;58.80;;;;;;5100946;27;20481;-69
2022/05/14 07:18:56;;;;;;;7.20;3.40;;;14.80;57.70;;;;;;5102157;28;20428;-66
2022/05/14 07:21:23;;;;;;;5.77;3.23;;;14.80;58.20;;;;;;5103893;28;20512;-66
2022/05/14 07:23:50;;;;;;;5.00;3.33;;;14.90;57.60;;;;;;5103585;28;20851;-66
2022/05/14 07:26:16;;;;;;;6.15;3.55;;;15.10;58.30;;;;;;5101318;28;20457;-66
2022/05/14 07:28:43;;;;;;;4.90;3.00;;;15.50;57.00;;;;;;5105254;28;20985;-66
2022/05/14 07:31:10;;;;;;;6.70;3.40;;;15.80;55.60;;;;;;5101828;28;20808;-67
2022/05/14 07:33:38;;;;;;;6.05;3.50;;;16.00;55.20;;;;;;5103036;28;21052;-67
2022/05/14 07:36:12;;;;;;;4.55;3.70;;;16.20;54.40;;;;;;5102487;27;20507;-67
2022/05/14 07:38:40;;;;;;;5.85;3.50;;;16.20;54.70;;;;;;5102689;28;21084;-67
2022/05/14 07:41:07;;;;;;;6.13;3.50;;;16.50;54.10;;;;;;5105675;28;20437;-68
2022/05/14 07:43:38;;;;;;;6.68;3.28;;;16.60;52.70;;;;;;5106971;27;20431;-68
2022/05/14 07:46:09;;;;;;;5.40;3.20;;;16.70;52.70;;;;;;5104512;28;20716;-67
2022/05/14 07:48:38;;;;;;;6.20;3.40;;;16.70;51.90;;;;;;5097837;27;21035;-68
2022/05/14 07:51:08;;;;;;;7.60;3.40;;;16.70;53.10;;;;;;5097088;28;20428;-68
2022/05/14 07:53:36;;;;;;;6.97;3.40;;;16.90;52.20;;;;;;5102665;28;20510;-69
2022/05/14 07:56:05;;;;;;;4.37;2.73;;;17.20;52.70;;;;;;5104246;28;20423;-66
2022/05/14 07:58:32;;;;;;;5.10;3.00;;;17.60;52.00;;;;;;5100449;28;20881;-67
2022/05/14 08:00:59;;;;;;;6.15;3.38;;;17.90;50.70;;;;;;5098403;27;20436;-66
2022/05/14 08:03:27;;;;;;;5.20;2.70;;;18.20;47.70;;;;;;5101423;28;20455;-67
2022/05/14 08:05:54;;;;;;;5.45;3.40;;;18.40;48.10;;;;;;5101903;28;20788;-67
2022/05/14 08:08:22;;;;;;;5.18;2.70;;;18.40;47.10;;;;;;5093959;28;20428;-68
2022/05/14 08:10:51;;;;;;;5.40;2.90;;;18.50;47.30;;;;;;5100049;28;20432;-67
2022/05/14 08:13:18;;;;;;;4.90;3.00;;;18.80;46.90;;;;;;5107600;27;20427;-71
2022/05/14 08:15:47;;;;;;;6.17;2.83;;;19.10;45.30;;;;;;5107802;28;20452;-75
2022/05/14 08:18:14;;;;;;;4.68;2.92;;;19.20;44.80;;;;;;5104820;27;20435;-69
2022/05/14 08:20:41;;;;;;;5.10;3.10;;;19.30;44.80;;;;;;5100159;28;20435;-68
2022/05/14 08:26:08;;;;;;;7.35;2.88;;;19.40;45.70;;;;;;5031233;28;20596;-68
2022/05/14 08:28:35;;;;;;;6.90;2.70;;;19.60;43.80;;;;;;5086420;28;20442;-68
2022/05/14 08:31:02;;;;;;;6.28;2.90;;;19.70;44.30;;;;;;5098966;28;20486;-70
2022/05/14 08:33:29;;;;;;;5.32;2.70;;;19.90;43.20;;;;;;5097369;28;21023;-70
2022/05/14 08:35:56;;;;;;;4.45;2.45;;;20.10;43.20;;;;;;5101122;28;20425;-67
2022/05/14 08:38:23;;;;;;;4.53;2.60;;;20.20;43.20;;;;;;5101330;28;20500;-68
2022/05/14 08:40:55;;;;;;;5.30;3.20;;;20.10;42.40;;;;;;5097300;28;20518;-65
2022/05/14 08:43:28;;;;;;;5.28;2.65;;;20.10;42.00;;;;;;5100247;28;20977;-65
2022/05/14 08:45:55;;;;;;;6.53;3.13;;;20.10;43.00;;;;;;5103133;27;20531;-66
2022/05/14 08:48:26;;;;;;;4.82;2.60;;;20.30;41.40;;;;;;5096996;28;20439;-65
2022/05/14 08:51:00;;;;;;;3.95;2.30;;;20.40;42.70;;;;;;5099914;28;20500;-66
2022/05/14 08:53:29;;;;;;;4.47;2.75;;;20.60;41.20;;;;;;5099024;28;20515;-68
2022/05/14 08:56:05;;;;;;;7.80;2.60;;;21.10;40.80;;;;;;5097793;28;20490;-69
2022/05/14 08:58:46;;;;;;;5.10;2.38;;;21.20;40.70;;;;;;5099420;28;20424;-66
2022/05/14 09:01:19;;;;;;;4.00;2.80;;;21.40;40.50;;;;;;5100610;28;20468;-68
2022/05/14 09:03:46;;;;;;;4.93;2.35;;;21.70;40.10;;;;;;5095169;28;20444;-68
2022/05/14 09:06:12;;;;;;;4.95;2.63;;;21.80;40.10;;;;;;5096858;28;21879;-68
2022/05/14 09:08:40;;;;;;;4.73;2.30;;;22.10;39.30;;;;;;5109631;27;20491;-67
2022/05/14 09:11:17;;;;;;;4.18;2.10;;;22.30;38.10;;;;;;5101160;28;20459;-68
2022/05/14 09:13:48;;;;;;;5.85;2.33;;;22.20;38.30;;;;;;5101352;28;20528;-67
2022/05/14 09:16:23;;;;;;;4.78;2.45;;;22.20;38.90;;;;;;5099426;28;20971;-69
2022/05/14 09:18:53;;;;;;;4.63;2.40;;;22.40;38.60;;;;;;5099561;28;20543;-69
2022/05/14 09:21:22;;;;;;;4.72;2.30;;;22.50;38.50;;;;;;5089723;28;20907;-69
2022/05/14 09:23:54;;;;;;;5.90;2.80;;;22.70;38.00;;;;;;5098697;28;20434;-68
2022/05/14 09:26:25;;;;;;;4.93;2.63;;;22.90;37.40;;;;;;5099173;28;20432;-67
2022/05/14 09:28:57;;;;;;;4.97;2.60;;;23.20;36.60;;;;;;5097191;28;20512;-69
2022/05/14 09:31:26;;;;;;;4.90;2.53;;;23.30;35.50;;;;;;5096706;28;21124;-69
2022/05/14 09:34:02;;;;;;;5.18;2.80;;;23.10;36.40;;;;;;5102396;28;20431;-67
2022/05/14 09:36:30;;;;;;;6.27;2.80;;;22.80;36.10;;;;;;5094743;28;20428;-69
2022/05/14 09:39:01;;;;;;;4.93;2.50;;;22.60;37.10;;;;;;5098957;28;20886;-69
2022/05/14 09:41:28;;;;;;;7.90;2.60;;;22.60;37.70;;;;;;5101980;28;20938;-67
2022/05/14 09:43:59;;;;;;;3.30;2.55;;;22.70;38.30;;;;;;5095994;28;20942;-68
2022/05/14 09:46:28;;;;;;;4.82;2.63;;;22.70;37.60;;;;;;5100961;28;20510;-69
2022/05/14 09:49:02;;;;;;;4.60;2.60;;;23.00;36.90;;;;;;5100411;28;20427;-68
2022/05/14 09:51:31;;;;;;;7.50;2.80;;;23.10;36.50;;;;;;5105394;27;20436;-70
2022/05/14 09:54:08;;;;;;;6.03;2.75;;;23.10;36.50;;;;;;5094553;28;20500;-68
2022/05/14 09:56:55;;;;;;;6.05;3.05;;;22.80;37.40;;;;;;5102468;27;20533;-68
2022/05/14 09:59:48;;;;;;;6.60;2.70;;;22.90;36.80;;;;;;5099047;28;20953;-69
2022/05/14 10:02:26;;;;;;;5.90;2.90;;;22.80;37.90;;;;;;5106436;28;20416;-71
2022/05/14 10:05:02;;;;;;;4.70;2.90;;;22.60;38.10;;;;;;5105488;28;20952;-68
2022/05/14 10:07:36;;;;;;;5.50;2.40;;;22.70;38.00;;;;;;5105152;27;20557;-69
2022/05/14 10:10:12;;;;;;;3.92;2.60;;;22.80;37.50;;;;;;5096657;28;20492;-68
2022/05/14 10:12:42;;;;;;;6.40;2.90;;;23.00;37.30;;;;;;5102784;28;21142;-67
2022/05/14 10:15:22;;;;;;;8.27;3.20;;;23.20;36.90;;;;;;5104022;27;20432;-69
2022/05/14 10:17:58;;;;;;;6.25;2.97;;;23.50;36.50;;;;;;5102395;28;21215;-69
2022/05/14 10:20:42;;;;;;;5.22;2.70;;;24.00;36.00;;;;;;5102165;28;20436;-69
2022/05/14 10:26:48;;;;;;;3.88;2.72;;;24.60;34.80;;;;;;5080229;28;20446;-69
2022/05/14 10:29:27;;;;;;;6.20;3.28;;;24.80;34.20;;;;;;5114134;27;20480;-69
2022/05/14 10:32:00;;;;;;;6.40;2.60;;;25.30;32.50;;;;;;5103640;28;20511;-69
2022/05/14 10:34:39;;;;;;;4.90;2.70;;;25.20;33.30;;;;;;5098931;27;20428;-70
2022/05/14 10:37:14;;;;;;;6.03;2.90;;;25.30;32.90;;;;;;5102880;28;20431;-69
2022/05/14 10:39:45;;;;;;;6.10;3.00;;;25.30;33.10;;;;;;5106117;27;21196;-69
2022/05/14 10:42:17;;;;;;;5.53;3.08;;;25.20;33.40;;;;;;5104539;27;20428;-70
2022/05/14 10:44:50;;;;;;;6.28;2.80;;;25.20;33.20;;;;;;5103241;28;20526;-69
2022/05/14 10:47:20;;;;;;;5.67;2.57;;;25.40;33.00;;;;;;5102396;27;20960;-70
2022/05/14 10:49:54;;;;;;;5.38;3.28;;;25.50;33.00;;;;;;5104692;28;20436;-68
2022/05/14 10:52:20;;;;;;;5.87;3.00;;;25.50;31.90;;;;;;5104008;28;20477;-68
2022/05/14 10:54:48;;;;;;;4.93;3.10;;;25.20;32.10;;;;;;5104882;28;20524;-69
2022/05/14 10:57:40;;;;;;;5.07;3.40;;;24.80;32.20;;;;;;5103274;28;20537;-62
2022/05/14 11:00:20;;;;;;;6.13;2.90;;;24.80;32.80;;;;;;5100152;28;20439;-69
2022/05/14 11:02:57;;;;;;;5.40;3.20;;;25.00;33.10;;;;;;5101413;28;20448;-66
2022/05/14 11:05:33;;;;;;;4.80;3.10;;;25.20;32.30;;;;;;5101025;28;20469;-68
2022/05/14 11:08:11;;;;;;;4.85;3.22;;;25.10;32.50;;;;;;5101061;28;20818;-65
2022/05/14 11:10:38;;;;;;;6.53;3.40;;;25.10;33.20;;;;;;5102731;28;20803;-65
2022/05/14 11:13:14;;;;;;;5.38;2.97;;;25.30;33.60;;;;;;5102165;28;20450;-65
2022/05/14 11:15:41;;;;;;;3.95;2.50;;;25.40;32.90;;;;;;5102125;28;20423;-65
2022/05/14 11:18:11;;;;;;;4.73;2.40;;;25.50;33.10;;;;;;5103785;28;20843;-65
2022/05/14 11:20:39;;;;;;;5.90;2.65;;;25.80;33.40;;;;;;5104118;28;20435;-67
2022/05/14 11:23:09;;;;;;;5.47;3.40;;;25.90;32.60;;;;;;5103098;28;20431;-64
2022/05/14 11:25:35;;;;;;;10.70;9.75;;;26.10;32.60;;;;;;5104188;28;20431;-64
2022/05/14 11:28:07;;;;;;;7.28;5.13;;;26.30;32.30;;;;;;5102854;28;20508;-63
2022/05/14 11:30:38;;;;;;;6.43;2.90;;;26.40;31.40;;;;;;5102891;28;20435;-64
2022/05/14 11:33:17;;;;;;;5.47;3.42;;;25.80;31.30;;;;;;5101427;28;20444;-64
2022/05/14 11:35:47;;;;;;;3.78;3.22;;;25.20;32.60;;;;;;5100769;28;20870;-63
2022/05/14 11:38:17;;;;;;;6.00;3.47;;;24.80;33.20;;;;;;5103176;28;20482;-63
2022/05/14 11:40:55;;;;;;;6.55;3.20;;;25.00;34.60;;;;;;5104689;27;20436;-64
2022/05/14 11:43:27;;;;;;;4.40;3.30;;;25.60;33.40;;;;;;5107658;27;20436;-63
2022/05/14 11:46:13;;;;;;;5.80;3.70;;;26.10;33.00;;;;;;5100626;28;20508;-65
2022/05/14 11:48:46;;;;;;;5.97;3.00;;;25.90;32.00;;;;;;5098942;27;20461;-64
2022/05/14 11:51:19;;;;;;;6.72;3.60;;;25.40;32.30;;;;;;5096301;28;20424;-64
2022/05/14 11:53:51;;;;;;;5.85;3.30;;;24.70;33.90;;;;;;5094265;28;20441;-64
2022/05/14 11:56:26;;;;;;;5.15;2.92;;;25.00;33.90;;;;;;5097176;28;20540;-64
2022/05/14 11:59:00;;;;;;;5.32;3.00;;;25.40;33.60;;;;;;5099845;28;20492;-65
2022/05/14 12:01:33;;;;;;;6.00;3.15;;;25.70;32.80;;;;;;5097073;27;20509;-65
2022/05/14 12:04:01;;;;;;;4.78;2.50;;;26.00;32.10;;;;;;5100563;27;20911;-63
2022/05/14 12:06:48;;;;;;;5.07;2.33;;;26.20;31.70;;;;;;5097636;27;20489;-65
2022/05/14 12:09:30;;;;;;;5.30;2.60;;;26.30;32.40;;;;;;5097302;28;20980;-66
2022/05/14 12:12:05;;;;;;;3.58;2.35;;;26.60;30.80;;;;;;5095492;28;20511;-64
2022/05/14 12:14:34;;;;;;;5.18;2.40;;;26.90;30.10;;;;;;5098769;28;20420;-64
2022/05/14 12:17:04;;;;;;;4.00;1.98;;;26.90;30.00;;;;;;5093003;28;20431;-68
2022/05/14 12:19:35;;;;;;;5.00;2.40;;;27.00;30.20;;;;;;5099496;28;20428;-64
2022/05/14 12:22:06;;;;;;;4.28;2.38;;;27.10;30.00;;;;;;5103001;28;20800;-67
2022/05/14 12:24:35;;;;;;;5.65;2.60;;;27.10;30.00;;;;;;5101484;28;20428;-66
2022/05/14 12:27:02;;;;;;;3.90;2.33;;;27.10;30.00;;;;;;5107052;27;20419;-66
2022/05/14 12:29:30;;;;;;;3.47;2.20;;;26.80;29.90;;;;;;5100084;27;20515;-66
2022/05/14 12:34:44;;;;;;;4.65;2.30;;;26.60;32.00;;;;;;5097125;28;20441;-65
2022/05/14 12:37:23;;;;;;;6.73;2.90;;;26.60;30.60;;;;;;5101567;28;20432;-67
2022/05/14 12:39:53;;;;;;;5.00;2.80;;;26.30;30.30;;;;;;5096494;27;20909;-65
2022/05/14 12:42:30;;;;;;;6.97;2.75;;;25.70;31.20;;;;;;5100092;28;20435;-64
2022/05/14 12:44:58;;;;;;;4.68;2.42;;;25.50;33.80;;;;;;5100579;28;20492;-65
2022/05/14 12:47:28;;;;;;;4.67;2.10;;;25.70;32.30;;;;;;5095879;28;20470;-65
2022/05/14 12:49:56;;;;;;;5.25;2.00;;;26.00;32.70;;;;;;5097674;28;20435;-72
2022/05/14 12:52:28;;;;;;;3.33;1.80;;;26.30;29.70;;;;;;5101353;28;20433;-66
2022/05/14 12:55:00;;;;;;;5.60;2.00;;;26.50;30.40;;;;;;5100236;28;20409;-66
2022/05/14 12:57:27;;;;;;;3.75;2.20;;;26.40;28.70;;;;;;5097820;28;20417;-64
2022/05/14 12:59:54;;;;;;;7.05;2.70;;;26.00;30.00;;;;;;5102050;27;20522;-65
2022/05/14 13:02:25;;;;;;;5.22;2.70;;;25.50;30.80;;;;;;5101705;28;20894;-65
2022/05/14 13:04:59;;;;;;;5.53;2.40;;;25.50;30.90;;;;;;5101518;28;20963;-65
2022/05/14 13:07:28;;;;;;;3.92;2.50;;;25.90;31.00;;;;;;5100424;28;20523;-64
2022/05/14 13:09:56;;;;;;;4.45;2.00;;;25.70;29.70;;;;;;5099764;28;20428;-65
2022/05/14 13:12:28;;;;;;;4.23;2.27;;;25.80;31.60;;;;;;5101288;28;20514;-66
2022/05/14 13:14:57;;;;;;;4.95;2.20;;;26.10;31.10;;;;;;5101267;28;20483;-65
2022/05/14 13:17:31;;;;;;;5.17;2.50;;;26.40;30.30;;;;;;5099811;28;20473;-65
2022/05/14 13:19:59;;;;;;;5.10;2.30;;;26.60;31.00;;;;;;5095777;28;20486;-65
2022/05/14 13:22:35;;;;;;;4.65;2.30;;;26.90;30.50;;;;;;5102343;28;20428;-65